Time;durP1;ratioP1;P1;durP2;ratioP2;P2;SDS_P1;SDS_P2;PMS_P1;PMS_P2;Temp;Humidity;BMP_temperature;BMP_pressure;BME280_temperature;BME280_humidity;BME280_pressure;Samples;Min_cycle;Max_cycle;Signal;HPM_P1;HPM_P2
2023/10/16 00:12:29;;;;;;;5.00;3.60;;;;;;;22.35;51.81;100609.00;41589945;28;20060;-70
2023/10/16 00:32:30;;;;;;;4.05;3.38;;;;;;;22.43;52.37;100663.84;41574246;28;20042;-72
2023/10/16 00:52:34;;;;;;;3.40;3.10;;;;;;;22.37;52.15;100670.41;41599105;28;20049;-71
2023/10/16 01:12:36;;;;;;;4.60;3.45;;;;;;;22.33;52.00;100650.50;41721579;28;20691;-69
2023/10/16 01:32:38;;;;;;;4.18;2.80;;;;;;;22.31;51.80;100673.53;41742717;28;20044;-71
2023/10/16 01:52:40;;;;;;;3.28;2.83;;;;;;;22.15;51.23;100671.25;41770793;28;20063;-71
2023/10/16 02:12:40;;;;;;;2.50;2.30;;;;;;;22.13;51.53;100692.47;41778642;28;20063;-70
2023/10/16 02:32:42;;;;;;;3.60;2.42;;;;;;;22.16;51.60;100700.13;41757366;28;20071;-70
2023/10/16 02:52:44;;;;;;;2.47;2.20;;;;;;;22.01;51.85;100688.13;41794652;28;20525;-70
2023/10/16 03:12:52;;;;;;;2.45;2.25;;;;;;;21.59;51.22;100628.84;41646681;28;20727;-72
2023/10/16 03:32:53;;;;;;;2.53;1.80;;;;;;;21.91;50.93;100712.56;41625504;28;20045;-70
2023/10/16 03:52:55;;;;;;;2.10;1.90;;;;;;;22.06;51.23;100730.81;41582052;28;20405;-74
2023/10/16 04:12:57;;;;;;;2.00;1.80;;;;;;;22.18;51.73;100736.94;41594514;28;20555;-76
2023/10/16 04:33:13;;;;;;;8.05;3.20;;;;;;;22.13;52.79;100742.56;41573080;28;20058;-74
2023/10/16 04:53:14;;;;;;;12.05;3.83;;;;;;;21.80;53.24;100772.28;41657924;28;20068;-74
2023/10/16 05:13:24;;;;;;;7.95;2.80;;;;;;;21.50;45.17;100779.69;41911786;28;20041;-77
2023/10/16 06:14:16;;;;;;;6.05;2.45;;;;;;;22.02;50.08;100821.63;41986717;28;20090;-80
2023/10/16 06:34:16;;;;;;;8.00;2.70;;;;;;;21.90;50.32;100828.69;41989248;28;20461;-83
2023/10/16 06:54:24;;;;;;;5.70;2.55;;;;;;;22.03;49.72;100868.16;41976853;28;20044;-81
2023/10/16 07:14:24;;;;;;;6.18;2.47;;;;;;;22.07;49.76;100870.47;41997308;28;20111;-81
2023/10/16 07:34:33;;;;;;;4.85;2.80;;;;;;;22.22;49.68;100905.41;41979005;28;20062;-82
2023/10/16 07:54:36;;;;;;;7.03;3.40;;;;;;;22.23;50.28;100909.72;41973756;28;20140;-80
2023/10/16 08:14:36;;;;;;;6.88;4.00;;;;;;;22.20;50.43;100930.22;41978201;28;20058;-80
2023/10/16 08:34:40;;;;;;;8.10;5.40;;;;;;;21.98;49.81;100884.31;41997133;28;20089;-83
2023/10/16 09:15:09;;;;;;;8.00;4.80;;;;;;;22.47;49.99;100937.06;41956378;28;20040;-81
2023/10/16 09:35:12;;;;;;;6.38;4.70;;;;;;;22.46;49.92;100915.13;41894919;28;20127;-80
2023/10/16 09:55:18;;;;;;;8.20;5.40;;;;;;;22.69;49.08;100921.34;41886912;28;20045;-79
2023/10/16 10:15:20;;;;;;;7.00;2.38;;;;;;;21.04;37.52;100904.91;41863076;28;20037;-78
2023/10/16 10:35:29;;;;;;;3.85;2.13;;;;;;;22.44;38.45;100872.19;41940090;28;20108;-74
2023/10/16 10:55:29;;;;;;;6.45;3.80;;;;;;;22.84;43.69;100857.75;41913459;28;20063;-79
2023/10/16 11:15:30;;;;;;;7.43;4.40;;;;;;;23.12;45.03;100832.66;41924969;28;20073;-79
2023/10/16 11:35:34;;;;;;;5.65;4.47;;;;;;;23.31;46.10;100813.59;41917971;28;20049;-81
2023/10/16 11:55:38;;;;;;;4.43;3.83;;;;;;;23.44;46.22;100797.59;41887755;28;20052;-80
2023/10/16 12:15:39;;;;;;;4.83;4.07;;;;;;;23.47;46.40;100755.06;41873974;28;20405;-76
2023/10/16 12:35:40;;;;;;;5.82;4.13;;;;;;;23.87;46.35;100787.94;41873339;28;20079;-72
2023/10/16 12:55:42;;;;;;;7.05;3.83;;;;;;;23.96;46.10;100789.88;41827319;28;20033;-74
2023/10/16 13:15:48;;;;;;;7.93;3.40;;;;;;;24.01;46.18;100772.75;41859283;28;20044;-72
2023/10/16 13:35:50;;;;;;;6.20;3.45;;;;;;;23.93;46.36;100754.91;41845600;28;20105;-74
2023/10/16 13:55:56;;;;;;;12.35;3.50;;;;;;;23.76;47.69;100762.38;41844382;28;20493;-71
2023/10/16 14:15:57;;;;;;;7.05;2.95;;;;;;;23.78;48.15;100751.69;41877308;28;20048;-75
2023/10/16 14:35:59;;;;;;;6.05;3.22;;;;;;;23.69;48.39;100744.53;41895741;28;20041;-74
2023/10/16 14:56:00;;;;;;;8.00;2.83;;;;;;;23.44;48.64;100731.50;41862221;28;20052;-71
2023/10/16 17:20:45;;;;;;;8.63;2.28;;;;;;;22.65;48.03;100779.97;42146132;24;20140;-79
2023/10/16 17:40:49;;;;;;;10.48;2.60;;;;;;;22.36;48.48;100725.00;39910983;29;20065;-77
2023/10/16 18:00:52;;;;;;;7.55;2.38;;;;;;;22.84;49.18;100802.31;39890409;29;20043;-79
2023/10/16 18:20:56;;;;;;;13.60;2.83;;;;;;;22.87;50.14;100812.63;39903150;29;20503;-78
2023/10/16 18:40:59;;;;;;;6.70;2.50;;;;;;;22.79;49.72;100841.41;39907336;29;20157;-79
2023/10/16 19:01:03;;;;;;;8.02;2.60;;;;;;;22.71;48.84;100844.66;39920137;29;20084;-73
2023/10/16 19:21:06;;;;;;;14.00;2.45;;;;;;;22.21;49.31;100865.97;39897670;29;20058;-73
2023/10/16 19:41:16;;;;;;;8.50;2.53;;;;;;;22.58;47.94;100883.50;39917566;29;20061;-75
2023/10/16 20:01:17;;;;;;;9.65;2.80;;;;;;;22.58;50.61;100894.06;39895249;29;20472;-72
2023/10/16 20:21:23;;;;;;;6.53;2.95;;;;;;;22.54;50.78;100904.00;39908054;29;20045;-77
2023/10/16 20:41:24;;;;;;;4.60;2.58;;;;;;;22.52;50.65;100897.97;39918198;29;20153;-73
2023/10/16 21:01:24;;;;;;;6.05;3.03;;;;;;;22.49;48.97;100906.97;39944744;29;20072;-73
2023/10/16 21:21:25;;;;;;;4.63;2.97;;;;;;;22.45;50.05;100924.00;39950421;29;20046;-72
2023/10/16 21:41:35;;;;;;;4.25;3.20;;;;;;;22.36;49.07;100900.91;39953859;29;20118;-71
2023/10/16 22:01:35;;;;;;;6.88;3.70;;;;;;;22.36;48.86;100917.59;39933066;29;20100;-72
2023/10/16 22:21:37;;;;;;;6.68;3.90;;;;;;;22.13;50.48;100884.13;39958795;29;20054;-73
2023/10/16 22:41:38;;;;;;;5.95;3.60;;;;;;;22.28;51.00;100908.56;39972359;29;20117;-71
2023/10/16 23:01:39;;;;;;;5.10;3.80;;;;;;;22.08;50.51;100868.66;39964653;29;20111;-71
2023/10/16 23:21:39;;;;;;;5.20;3.67;;;;;;;22.20;50.45;100890.66;39970113;29;20582;-73
2023/10/16 23:42:02;;;;;;;5.43;4.07;;;;;;;22.15;49.57;100885.69;39949364;29;20050;-72
